Time;durP1;ratioP1;P1;durP2;ratioP2;P2;SDS_P1;SDS_P2;PMS_P1;PMS_P2;Temp;Humidity;BMP_temperature;BMP_pressure;BME280_temperature;BME280_humidity;BME280_pressure;Samples;Min_cycle;Max_cycle;Signal;HPM_P1;HPM_P2
2023/04/09 07:23:17;;;;;;;37.00;29.67;;;;;;;-145.79;72.95;78916.41;5290280;28;20547;-82
2023/04/09 07:25:48;;;;;;;35.40;31.60;;;;;;;-145.79;72.76;78914.31;5284221;28;20024;-82
2023/04/09 07:28:20;;;;;;;36.30;31.35;;;;;;;-145.79;73.11;78916.41;5292547;28;20024;-82
2023/04/09 07:30:52;;;;;;;37.10;31.38;;;;;;;-145.79;73.19;78912.19;5288590;28;20043;-81
2023/04/09 07:33:23;;;;;;;34.95;29.80;;;;;;;-145.79;73.07;78910.06;5284897;28;20027;-82
2023/04/09 07:35:55;;;;;;;35.03;30.13;;;;;;;-145.79;72.94;78899.47;5284277;28;20519;-82
2023/04/09 07:38:30;;;;;;;33.10;29.15;;;;;;;-145.79;72.92;78871.91;5283642;28;20056;-82
2023/04/09 07:41:01;;;;;;;35.17;29.52;;;;;;;-145.79;72.49;78874.00;5283946;28;20021;-82
2023/04/09 07:43:33;;;;;;;34.25;29.70;;;;;;;-145.79;72.62;78852.81;5270607;28;20036;-83
2023/04/09 07:46:04;;;;;;;36.72;30.05;;;;;;;-145.79;71.67;78827.38;5267290;28;20108;-82
2023/04/09 07:48:35;;;;;;;36.00;29.98;;;;;;;-145.79;71.21;78814.63;5264241;28;20051;-82
2023/04/09 07:51:07;;;;;;;35.03;30.55;;;;;;;-145.79;70.26;78810.41;5265017;28;20144;-83
2023/04/09 07:53:38;;;;;;;33.40;29.75;;;;;;;-145.79;70.32;78810.41;5261358;28;20033;-82
2023/04/09 07:56:10;;;;;;;34.40;30.25;;;;;;;-145.79;69.95;78797.69;5261857;28;20034;-83
2023/04/09 07:58:41;;;;;;;37.03;30.83;;;;;;;-145.79;69.93;78814.63;5262679;28;20025;-84
2023/04/09 08:01:13;;;;;;;35.70;31.38;;;;;;;-145.79;69.66;78797.69;5261618;28;20051;-83
2023/04/09 08:03:44;;;;;;;37.53;32.47;;;;;;;-145.79;70.01;78780.72;5265083;28;20055;-82
2023/04/09 08:06:15;;;;;;;36.05;31.98;;;;;;;-145.79;69.77;78787.06;5269383;28;20104;-83
2023/04/09 08:08:47;;;;;;;36.97;32.97;;;;;;;-145.79;69.11;78776.47;5268285;28;20085;-83
2023/04/09 08:11:23;;;;;;;34.58;30.85;;;;;;;-145.79;69.44;78772.22;5268437;28;20037;-81
2023/04/09 08:13:56;;;;;;;36.63;32.63;;;;;;;-145.79;69.12;78755.28;5267830;28;20055;-82
2023/04/09 08:16:29;;;;;;;36.15;32.10;;;;;;;-145.79;68.63;78751.03;5275781;28;20025;-83
2023/04/09 08:19:00;;;;;;;38.15;33.78;;;;;;;-145.79;69.03;78734.06;5283296;28;20037;-82
2023/04/09 08:21:31;;;;;;;36.25;32.30;;;;;;;-145.79;68.69;78736.19;5281594;28;20048;-81
2023/04/09 08:24:04;;;;;;;35.72;31.92;;;;;;;-145.79;68.62;78744.66;5281709;28;20384;-82
2023/04/09 08:26:40;;;;;;;38.00;33.92;;;;;;;-145.79;68.62;78736.19;5281779;28;20146;-82
2023/04/09 08:29:12;;;;;;;;;;;;;;;-145.79;68.56;78714.97;5285062;28;20029;-82
2023/04/09 08:31:43;;;;;;;38.25;34.08;;;;;;;-145.79;68.12;78725.59;5281281;28;19993;-82
2023/04/09 08:34:16;;;;;;;37.22;32.95;;;;;;;-145.79;68.51;78717.09;5269945;28;20059;-82
2023/04/09 08:36:48;;;;;;;38.45;34.10;;;;;;;-145.79;68.66;78700.13;5267678;28;20044;-82
2023/04/09 08:39:20;;;;;;;36.15;31.52;;;;;;;-145.79;68.39;78693.78;5267389;28;20119;-82
2023/04/09 08:41:51;;;;;;;37.72;33.00;;;;;;;-145.79;67.62;78691.66;5266981;28;20029;-82
2023/04/09 08:44:25;;;;;;;37.15;32.28;;;;;;;-145.79;67.25;78674.69;5267936;28;20035;-82
2023/04/09 08:46:58;;;;;;;38.47;34.35;;;;;;;-145.79;67.39;78666.22;5266876;28;20025;-82
2023/04/09 08:49:30;;;;;;;36.97;33.00;;;;;;;-145.79;67.10;78678.94;5263196;28;20053;-82
2023/04/09 08:52:01;;;;;;;35.90;32.17;;;;;;;-145.79;67.30;78681.06;5246161;28;20045;-82
2023/04/09 08:54:32;;;;;;;34.70;31.10;;;;;;;-145.79;67.39;78676.81;5245143;28;20025;-82
2023/04/09 08:57:06;;;;;;;35.22;31.45;;;;;;;-145.79;67.54;78674.69;5261263;28;20081;-82
2023/04/09 08:59:38;;;;;;;37.88;33.70;;;;;;;-145.79;67.78;78666.22;5269234;28;20033;-81
2023/04/09 09:02:10;;;;;;;36.35;32.55;;;;;;;-145.79;67.54;78653.50;5268368;28;20559;-82
2023/04/09 09:04:46;;;;;;;36.72;32.67;;;;;;;-145.79;67.10;78642.91;5269329;28;20088;-82
2023/04/09 09:07:17;;;;;;;36.15;31.83;;;;;;;-145.79;66.55;78642.91;5267652;28;20078;-82
2023/04/09 09:10:01;;;;;;;37.22;33.15;;;;;;;-145.79;66.58;78642.91;5268436;28;20067;-82
2023/04/09 09:12:37;;;;;;;38.00;34.08;;;;;;;-145.79;66.46;78634.41;5267467;28;20021;-83
2023/04/09 09:15:28;;;;;;;35.90;32.13;;;;;;;-145.79;66.68;78611.09;5272665;28;20035;-83
2023/04/09 09:18:00;;;;;;;40.72;36.30;;;;;;;-145.79;65.93;78608.97;5267286;28;20029;-83
2023/04/09 09:20:31;;;;;;;34.47;30.90;;;;;;;-145.79;65.55;78604.72;5267050;28;20021;-83
2023/04/09 09:23:03;;;;;;;34.83;31.02;;;;;;;-145.79;66.28;78600.50;5267553;28;20061;-83
2023/04/09 09:25:38;;;;;;;37.20;32.53;;;;;;;-145.79;65.10;78583.53;5266455;28;20488;-83
2023/04/09 09:28:13;;;;;;;34.90;31.30;;;;;;;-145.79;64.79;78581.41;5267932;28;20021;-83
2023/04/09 09:30:45;;;;;;;33.53;29.80;;;;;;;-145.79;64.82;78564.44;5267557;28;20021;-83
2023/04/09 09:33:16;;;;;;;38.63;34.55;;;;;;;-145.79;63.77;78564.44;5267406;28;20108;-82
2023/04/09 09:35:50;;;;;;;36.03;32.33;;;;;;;-145.79;64.03;78558.09;5266573;28;20044;-81
2023/04/09 09:38:21;;;;;;;33.83;30.33;;;;;;;-145.79;63.21;78558.09;5265603;28;20033;-82
2023/04/09 09:40:52;;;;;;;34.33;30.75;;;;;;;-145.79;63.70;78543.25;5264756;28;20171;-82
2023/04/09 09:43:23;;;;;;;38.13;31.90;;;;;;;-145.79;63.85;78526.28;5265426;28;20031;-83
2023/04/09 09:45:56;;;;;;;35.67;31.92;;;;;;;-145.79;63.05;78517.81;5263840;28;20084;-83
2023/04/09 09:48:27;;;;;;;36.90;32.33;;;;;;;-145.79;62.92;78505.06;5265434;28;20021;-83
2023/04/09 09:51:02;;;;;;;32.72;29.42;;;;;;;-145.79;62.02;78509.31;5264782;28;20036;-83
2023/04/09 09:53:35;;;;;;;32.63;29.15;;;;;;;-145.79;61.34;78492.34;5266615;28;20025;-83
2023/04/09 09:56:15;;;;;;;33.40;29.77;;;;;;;-145.79;61.60;78464.78;5266623;28;20021;-82
2023/04/09 09:59:06;;;;;;;33.78;30.17;;;;;;;-145.79;61.60;78445.72;5265163;28;20078;-80
2023/04/09 10:01:39;;;;;;;30.35;27.27;;;;;;;-145.79;60.93;78449.94;5266437;28;20029;-83
2023/04/09 10:04:13;;;;;;;33.63;29.08;;;;;;;-145.79;60.45;78462.66;5265977;28;20036;-83
2023/04/09 10:06:46;;;;;;;33.20;29.80;;;;;;;-145.79;60.47;78469.03;5266523;28;20017;-83
2023/04/09 10:09:20;;;;;;;32.83;29.48;;;;;;;-145.79;60.99;78469.03;5267239;28;20035;-83
2023/04/09 10:11:54;;;;;;;26.98;24.13;;;;;;;-145.79;59.52;78479.63;5267257;28;20025;-82
2023/04/09 10:14:28;;;;;;;26.77;23.95;;;;;;;-145.79;59.47;78475.41;5265096;28;20030;-82
2023/04/09 10:16:59;;;;;;;27.50;24.60;;;;;;;-145.79;58.32;78475.41;5247947;28;20492;-82
2023/04/09 10:19:36;;;;;;;15.18;13.68;;;;;;;-145.79;55.37;78486.00;5247155;28;20018;-83
2023/04/09 10:22:10;;;;;;;18.92;17.02;;;;;;;-145.79;56.32;78466.91;5248879;28;20505;-82
2023/04/09 10:24:42;;;;;;;19.77;17.88;;;;;;;-145.79;56.95;78441.47;5254038;28;20025;-82
2023/04/09 10:27:15;;;;;;;21.40;19.23;;;;;;;-145.79;56.74;78420.28;5247240;28;20025;-83
2023/04/09 10:29:48;;;;;;;24.98;22.40;;;;;;;-145.79;56.96;78386.34;5246067;28;20140;-83
2023/04/09 10:32:22;;;;;;;22.35;20.05;;;;;;;-145.79;56.41;78401.19;5246634;28;20025;-83
2023/04/09 10:34:58;;;;;;;22.83;20.40;;;;;;;-145.79;55.75;78401.19;5245910;28;20032;-83
2023/04/09 10:37:29;;;;;;;20.77;18.67;;;;;;;-145.79;55.55;78409.66;5246360;28;20026;-83
2023/04/09 10:40:02;;;;;;;22.48;20.25;;;;;;;-145.79;54.91;78392.72;5245055;28;20052;-82
2023/04/09 10:42:42;;;;;;;22.55;19.58;;;;;;;-145.79;55.70;78386.34;5245896;28;20037;-83
2023/04/09 10:45:15;;;;;;;20.70;18.65;;;;;;;-145.79;55.22;78373.63;5245828;28;20461;-83
2023/04/09 10:47:50;;;;;;;19.75;17.50;;;;;;;-145.79;54.14;78343.94;5246131;28;20434;-82
2023/04/09 10:50:31;;;;;;;20.23;18.13;;;;;;;-145.79;53.58;78318.50;5247424;28;20071;-80
2023/04/09 10:53:03;;;;;;;18.90;16.95;;;;;;;-145.79;51.86;78303.66;5245830;28;20032;-83
2023/04/09 10:55:37;;;;;;;18.90;17.00;;;;;;;-145.79;52.34;78290.94;5244413;28;20112;-82
2023/04/09 10:58:10;;;;;;;19.85;17.77;;;;;;;-145.79;52.24;78278.22;5246559;28;20156;-80
2023/04/09 11:00:43;;;;;;;19.25;17.35;;;;;;;-145.79;51.80;78280.34;5246093;28;20040;-82
2023/04/09 11:03:22;;;;;;;19.90;17.90;;;;;;;-145.79;51.70;78250.66;5245135;28;20048;-81
2023/04/09 11:05:58;;;;;;;20.50;18.45;;;;;;;-145.79;50.64;78252.78;5246738;28;20028;-82
2023/04/09 11:08:31;;;;;;;21.77;18.70;;;;;;;-145.79;51.53;78259.13;5244133;28;20030;-82
2023/04/09 11:11:03;;;;;;;23.70;21.33;;;;;;;-145.79;52.39;78273.97;5244746;28;20026;-81
2023/04/09 11:13:34;;;;;;;23.17;20.92;;;;;;;-145.79;52.51;78290.94;5246141;28;20034;-81
2023/04/09 11:16:06;;;;;;;21.88;19.63;;;;;;;-145.79;52.49;78286.69;5245406;28;20059;-82
2023/04/09 11:18:38;;;;;;;22.77;20.50;;;;;;;-145.79;52.58;78276.09;5245683;28;20025;-81
2023/04/09 11:21:12;;;;;;;20.35;18.35;;;;;;;-145.79;51.71;78267.63;5246134;28;20057;-81
2023/04/09 11:23:50;;;;;;;19.77;17.77;;;;;;;-145.79;51.27;78254.91;5259569;28;20025;-81
2023/04/09 11:26:33;;;;;;;19.23;17.33;;;;;;;-145.79;50.74;78250.66;5267314;28;20036;-81
2023/04/09 11:29:08;;;;;;;18.20;16.45;;;;;;;-145.79;49.79;78259.13;5267469;28;20120;-81
2023/04/09 11:31:44;;;;;;;14.23;12.68;;;;;;;-145.79;49.37;78246.41;5267283;28;20033;-81
2023/04/09 11:34:16;;;;;;;13.20;11.85;;;;;;;-145.79;48.88;78237.94;5266349;28;20029;-82
2023/04/09 11:36:52;;;;;;;13.70;12.40;;;;;;;-145.79;49.00;78242.19;5266081;28;20071;-82
2023/04/09 11:39:23;;;;;;;14.45;12.95;;;;;;;-145.79;49.27;78231.56;5264916;28;20083;-82
2023/04/09 11:41:56;;;;;;;16.02;13.85;;;;;;;-145.79;49.16;78233.69;5264587;28;20028;-83
2023/04/09 11:44:29;;;;;;;15.50;13.98;;;;;;;-145.79;49.32;78229.47;5265621;28;20025;-83
2023/04/09 11:47:01;;;;;;;16.42;14.80;;;;;;;-145.79;49.32;78225.22;5266268;28;20032;-82
2023/04/09 11:49:33;;;;;;;16.70;15.10;;;;;;;-145.79;48.47;78212.50;5266764;28;20025;-81
2023/04/09 11:52:04;;;;;;;15.63;14.02;;;;;;;-145.79;47.52;78182.81;5271531;28;20032;-82
2023/04/09 11:54:36;;;;;;;13.82;12.50;;;;;;;-145.79;45.84;78153.13;5267231;28;20025;-82
2023/04/09 11:57:07;;;;;;;14.80;13.00;;;;;;;-145.79;45.65;78119.22;5258808;28;20052;-82
2023/04/09 11:59:39;;;;;;;12.57;11.27;;;;;;;-145.79;43.84;78110.72;5244658;28;20037;-82
2023/04/09 12:02:11;;;;;;;12.95;11.68;;;;;;;-145.79;43.46;78104.38;5244424;28;20496;-82
2023/04/09 12:04:49;;;;;;;13.48;12.18;;;;;;;-145.79;43.92;78093.78;5244685;28;20116;-83
2023/04/09 12:07:21;;;;;;;12.32;11.02;;;;;;;-145.79;44.02;78131.94;5263309;28;20021;-82
2023/04/09 12:09:52;;;;;;;13.27;12.07;;;;;;;-145.79;44.15;78140.41;5269730;28;20028;-82
2023/04/09 12:12:23;;;;;;;12.50;11.23;;;;;;;-145.79;44.65;78138.28;5268015;28;20028;-82
2023/04/09 12:14:57;;;;;;;12.93;11.73;;;;;;;-145.79;44.56;78117.09;5263680;28;20029;-82
2023/04/09 12:17:33;;;;;;;13.15;11.88;;;;;;;-145.79;45.46;78123.44;5266178;28;20025;-82
2023/04/09 12:20:07;;;;;;;16.10;14.50;;;;;;;-145.79;45.65;78131.94;5267913;28;20033;-82
2023/04/09 12:22:40;;;;;;;15.90;14.30;;;;;;;-145.79;46.40;78127.69;5267238;28;20053;-82
2023/04/09 12:25:11;;;;;;;15.23;13.68;;;;;;;-145.79;45.44;78136.19;5268218;28;20032;-81
2023/04/09 12:27:42;;;;;;;14.85;13.35;;;;;;;-145.79;45.41;78110.72;5266288;28;20113;-81
2023/04/09 12:30:14;;;;;;;15.38;13.85;;;;;;;-145.79;43.87;78098.00;5266108;28;20025;-80
2023/04/09 12:32:45;;;;;;;15.57;13.98;;;;;;;-145.79;43.76;78095.91;5245542;28;20032;-81
2023/04/09 12:35:17;;;;;;;15.23;13.07;;;;;;;-145.79;44.07;78085.28;5263388;28;20028;-82
2023/04/09 12:37:49;;;;;;;14.50;13.07;;;;;;;-145.79;43.02;78051.38;5266804;28;20025;-82
2023/04/09 12:40:21;;;;;;;13.23;11.85;;;;;;;-145.79;42.60;78025.94;5266960;28;20071;-82
2023/04/09 12:42:53;;;;;;;14.85;12.02;;;;;;;-145.79;42.54;78000.50;5267110;28;20122;-82
2023/04/09 12:45:24;;;;;;;13.25;11.85;;;;;;;-145.79;42.77;77983.53;5266956;28;20040;-82
2023/04/09 12:47:56;;;;;;;16.52;14.52;;;;;;;-145.79;43.25;78008.97;5268438;28;20377;-82
2023/04/09 12:50:28;;;;;;;14.95;12.55;;;;;;;-145.79;43.51;78032.28;5271243;28;20036;-83
2023/04/09 12:53:00;;;;;;;12.68;11.15;;;;;;;-145.79;43.81;78040.78;5270616;28;20397;-82
2023/04/09 12:55:31;;;;;;;12.32;11.13;;;;;;;-145.79;43.79;78034.41;5269705;28;20052;-81
2023/04/09 12:58:02;;;;;;;13.55;12.23;;;;;;;-145.79;42.73;78045.00;5267689;28;20028;-82
2023/04/09 13:00:34;;;;;;;13.48;11.95;;;;;;;-145.79;42.47;78034.41;5268065;28;20469;-81
2023/04/09 13:03:05;;;;;;;13.35;11.98;;;;;;;-145.79;42.28;78023.81;5266054;28;20094;-83
2023/04/09 13:05:36;;;;;;;14.95;12.35;;;;;;;-145.79;42.42;78030.19;5266357;28;20020;-83
2023/04/09 13:08:08;;;;;;;13.48;12.20;;;;;;;-145.79;42.51;78034.41;5265946;28;20078;-81
2023/04/09 13:10:40;;;;;;;13.85;12.45;;;;;;;-145.79;42.18;78025.94;5265504;28;20025;-83
2023/04/09 13:13:11;;;;;;;14.00;12.48;;;;;;;-145.79;41.87;78040.78;5265624;28;20035;-82
2023/04/09 13:15:43;;;;;;;14.73;13.23;;;;;;;-145.79;42.01;78028.06;5264882;28;20460;-83
2023/04/09 13:18:15;;;;;;;11.45;10.38;;;;;;;-145.79;42.23;78030.19;5265239;28;20446;-82
2023/04/09 13:20:46;;;;;;;12.60;11.48;;;;;;;-145.79;42.16;78030.19;5264910;28;20022;-81
2023/04/09 13:23:17;;;;;;;14.05;12.75;;;;;;;-145.79;41.93;78011.09;5263871;28;20035;-82
2023/04/09 13:25:49;;;;;;;12.23;11.13;;;;;;;-145.79;41.94;77943.25;5265366;28;20032;-82
2023/04/09 13:28:20;;;;;;;13.30;11.95;;;;;;;-145.79;40.84;77917.81;5264959;28;20032;-82
2023/04/09 13:30:51;;;;;;;12.35;11.02;;;;;;;-145.79;40.79;77924.19;5264024;28;20029;-82
2023/04/09 13:33:23;;;;;;;12.55;11.32;;;;;;;-145.79;40.93;77958.09;5264395;28;20035;-83
2023/04/09 13:35:54;;;;;;;13.50;12.10;;;;;;;-145.79;40.94;77964.47;5264089;28;20033;-83
2023/04/09 13:38:25;;;;;;;12.43;11.23;;;;;;;-145.79;40.81;77945.38;5262820;28;20480;-82
2023/04/09 13:40:57;;;;;;;13.65;12.25;;;;;;;-145.79;40.39;77932.66;5243672;28;20072;-82
2023/04/09 13:43:28;;;;;;;12.45;11.25;;;;;;;-145.79;40.03;77890.25;5243431;28;20017;-82
2023/04/09 13:45:59;;;;;;;11.45;10.35;;;;;;;-145.79;40.54;77862.69;5244470;28;20185;-82
2023/04/09 13:48:31;;;;;;;12.32;11.15;;;;;;;-145.79;40.18;77873.31;5244573;28;20075;-81
2023/04/09 13:51:02;;;;;;;12.13;11.02;;;;;;;-145.79;40.87;77890.25;5243102;28;20037;-81
2023/04/09 13:53:33;;;;;;;12.70;10.55;;;;;;;-145.79;41.01;77898.75;5250051;28;20020;-82
2023/04/09 13:56:05;;;;;;;14.65;13.35;;;;;;;-145.79;40.73;77915.69;5263441;28;20025;-82
2023/04/09 13:58:36;;;;;;;12.77;10.90;;;;;;;-145.79;41.11;77936.91;5263445;28;20078;-83
2023/04/09 14:01:08;;;;;;;12.20;10.82;;;;;;;-145.79;41.63;77934.78;5264144;28;20108;-82
2023/04/09 14:03:42;;;;;;;12.77;11.45;;;;;;;-145.79;41.27;77947.50;5263908;28;20032;-82
2023/04/09 14:06:13;;;;;;;13.48;12.07;;;;;;;-145.79;41.51;77936.91;5263340;28;20025;-82
2023/04/09 14:08:44;;;;;;;13.48;12.27;;;;;;;-145.79;40.81;77962.34;5263683;28;20391;-82
2023/04/09 14:11:16;;;;;;;13.10;11.80;;;;;;;-145.79;41.38;77945.38;5262974;28;20679;-82
2023/04/09 14:13:47;;;;;;;11.77;10.68;;;;;;;-145.79;41.54;77953.84;5262986;28;20043;-82
2023/04/09 14:16:18;;;;;;;12.13;11.00;;;;;;;-145.79;40.84;77947.50;5263741;28;20027;-82
2023/04/09 14:18:50;;;;;;;12.10;10.90;;;;;;;-145.79;41.50;77949.63;5262686;28;20032;-82
2023/04/09 14:21:21;;;;;;;12.30;11.02;;;;;;;-145.79;41.26;77953.84;5263270;28;20043;-81
2023/04/09 14:23:53;;;;;;;12.50;11.20;;;;;;;-145.79;41.25;77951.72;5263375;28;20017;-82
2023/04/09 14:26:25;;;;;;;12.45;10.30;;;;;;;-145.79;41.61;77945.38;5262681;28;20017;-82
2023/04/09 14:28:56;;;;;;;11.50;10.40;;;;;;;-145.79;41.36;77953.84;5263807;28;20438;-82
2023/04/09 14:31:28;;;;;;;11.18;10.07;;;;;;;-145.79;41.20;77949.63;5261562;28;20104;-82
2023/04/09 14:33:59;;;;;;;11.00;9.90;;;;;;;-145.79;41.17;77947.50;5262999;28;20088;-82
2023/04/09 14:36:31;;;;;;;12.52;11.23;;;;;;;-145.79;41.57;77949.63;5263532;28;20086;-82
2023/04/09 14:39:02;;;;;;;11.70;10.30;;;;;;;-145.79;41.45;77953.84;5263621;28;20032;-82
2023/04/09 14:41:35;;;;;;;15.90;14.20;;;;;;;-145.79;41.18;77968.69;5262560;28;20035;-82
2023/04/09 14:44:06;;;;;;;11.73;10.43;;;;;;;-145.79;41.37;77960.22;5263340;28;20044;-82
2023/04/09 14:46:37;;;;;;;12.35;9.85;;;;;;;-145.79;41.34;77962.34;5261368;28;20017;-81
2023/04/09 14:49:09;;;;;;;13.02;11.50;;;;;;;-145.79;41.34;77975.06;5264130;28;20477;-82
2023/04/09 14:51:40;;;;;;;13.55;12.20;;;;;;;-145.79;41.51;77970.81;5263074;28;20468;-81
2023/04/09 14:54:11;;;;;;;14.20;12.70;;;;;;;-145.79;41.45;77966.56;5262604;28;20048;-82
2023/04/09 14:56:43;;;;;;;16.23;13.50;;;;;;;-145.79;40.95;77964.47;5262870;28;20029;-82
2023/04/09 14:59:20;;;;;;;11.05;9.98;;;;;;;-145.79;41.34;77964.47;5262635;28;20112;-82
2023/04/09 15:01:51;;;;;;;10.27;9.27;;;;;;;-145.79;41.01;77966.56;5261838;28;20358;-82
2023/04/09 15:04:22;;;;;;;11.50;10.30;;;;;;;-145.79;41.43;77966.56;5262393;28;20086;-82
2023/04/09 15:06:54;;;;;;;11.18;10.07;;;;;;;-145.79;41.48;77953.84;5248204;28;20070;-82
2023/04/09 15:09:25;;;;;;;12.00;10.07;;;;;;;-145.79;41.02;77958.09;5242608;28;20026;-83
2023/04/09 15:11:57;;;;;;;13.93;10.63;;;;;;;-145.79;41.40;77951.72;5249180;28;20026;-82
2023/04/09 15:14:29;;;;;;;11.75;10.55;;;;;;;-145.79;41.73;77919.94;5259486;28;20085;-82
2023/04/09 15:17:01;;;;;;;10.40;9.40;;;;;;;-145.79;41.33;77892.38;5248094;28;20025;-82
2023/04/09 15:19:32;;;;;;;11.52;10.45;;;;;;;-145.79;40.45;77869.06;5243469;28;20024;-82
2023/04/09 15:22:03;;;;;;;10.60;9.60;;;;;;;-145.79;40.31;77860.56;5241290;28;20060;-82
2023/04/09 15:24:34;;;;;;;9.93;8.93;;;;;;;-145.79;40.06;77843.63;5241244;28;20028;-82
2023/04/09 15:27:06;;;;;;;10.68;9.57;;;;;;;-145.79;39.21;77845.75;5241785;28;20021;-82
2023/04/09 15:29:37;;;;;;;12.00;10.75;;;;;;;-145.79;38.88;77845.75;5241311;28;20022;-83
2023/04/09 15:32:09;;;;;;;9.25;8.15;;;;;;;-145.79;39.06;77835.13;5242171;28;20481;-82
2023/04/09 15:34:40;;;;;;;11.48;9.73;;;;;;;-145.79;39.26;77835.13;5242011;28;20129;-83
2023/04/09 15:37:12;;;;;;;11.02;9.93;;;;;;;-145.79;39.91;77809.69;5241425;28;20052;-82
2023/04/09 15:39:43;;;;;;;10.82;9.73;;;;;;;-145.79;39.28;77805.47;5242437;28;20499;-82
2023/04/09 15:42:19;;;;;;;10.10;9.10;;;;;;;-145.79;38.81;77796.97;5241567;28;20056;-82
2023/04/09 15:44:50;;;;;;;12.15;10.68;;;;;;;-145.79;38.13;77805.47;5258612;28;20021;-82
2023/04/09 15:47:21;;;;;;;11.50;9.95;;;;;;;-145.79;38.04;77805.47;5266426;28;20078;-82
2023/04/09 15:49:54;;;;;;;17.17;15.48;;;;;;;-145.79;37.55;77792.75;5266082;28;20509;-82
2023/04/09 15:52:26;;;;;;;10.15;9.15;;;;;;;-145.79;37.16;77790.63;5267139;28;20163;-82
2023/04/09 15:54:57;;;;;;;11.15;10.05;;;;;;;-145.79;36.78;77773.66;5265701;28;20434;-81
2023/04/09 15:57:29;;;;;;;9.73;8.73;;;;;;;-145.79;36.96;77780.03;5266029;28;20143;-82
2023/04/09 16:00:00;;;;;;;10.75;9.68;;;;;;;-145.79;37.02;77788.50;5266797;28;20032;-82
2023/04/09 16:02:31;;;;;;;10.02;8.95;;;;;;;-145.79;37.47;77801.22;5266544;28;20029;-82
2023/04/09 16:05:04;;;;;;;11.02;9.93;;;;;;;-145.79;37.72;77828.78;5266790;28;20046;-82
2023/04/09 16:07:35;;;;;;;9.57;8.57;;;;;;;-145.79;37.98;77826.66;5245779;28;20028;-82
2023/04/09 16:10:07;;;;;;;9.40;8.40;;;;;;;-145.79;38.28;77830.91;5259366;28;20029;-82
2023/04/09 16:12:38;;;;;;;9.95;9.05;;;;;;;-145.79;38.41;77856.34;5264557;28;20028;-81
2023/04/09 16:15:10;;;;;;;8.95;7.60;;;;;;;-145.79;38.34;77864.81;5265838;28;20103;-82
2023/04/09 16:17:41;;;;;;;8.50;7.60;;;;;;;-145.79;39.09;77860.56;5265311;28;20035;-82
2023/04/09 16:20:12;;;;;;;8.50;7.60;;;;;;;-145.79;39.03;77847.84;5265919;28;20028;-81
2023/04/09 16:22:44;;;;;;;9.40;8.45;;;;;;;-145.79;38.44;77835.13;5265455;28;20080;-82
2023/04/09 16:25:15;;;;;;;9.60;8.70;;;;;;;-145.79;37.92;77822.41;5265339;28;20476;-82
2023/04/09 16:27:46;;;;;;;9.02;8.13;;;;;;;-145.79;37.95;77805.47;5265854;28;20025;-82
2023/04/09 16:30:18;;;;;;;10.48;8.60;;;;;;;-145.79;37.86;77801.22;5247412;28;20022;-81
2023/04/09 16:32:49;;;;;;;9.00;8.20;;;;;;;-145.79;38.09;77809.69;5244146;28;20040;-81
2023/04/09 16:35:20;;;;;;;8.73;7.82;;;;;;;-145.79;38.22;77826.66;5244919;28;20028;-81
2023/04/09 16:37:52;;;;;;;8.30;7.38;;;;;;;-145.79;38.36;77826.66;5244978;28;20025;-81
2023/04/09 16:40:23;;;;;;;8.80;7.90;;;;;;;-145.79;38.29;77837.25;5243860;28;20044;-81
2023/04/09 16:42:54;;;;;;;8.38;7.47;;;;;;;-145.79;38.08;77841.50;5244490;28;20387;-81
2023/04/09 16:45:26;;;;;;;8.73;7.88;;;;;;;-145.79;38.01;77839.38;5262877;28;20111;-81
2023/04/09 16:47:57;;;;;;;8.40;7.60;;;;;;;-145.79;38.22;77845.75;5265000;28;20017;-82
2023/04/09 16:50:30;;;;;;;8.07;7.32;;;;;;;-145.79;39.01;77843.63;5265891;28;20036;-81
2023/04/09 16:53:03;;;;;;;7.72;6.93;;;;;;;-145.79;38.69;77843.63;5265085;28;20021;-81
